Southern Hills, Louisiana
Current Conditions -  °F | °C
As of 9:56 AM on Wednesday 26 Nov 2014 (Local Time) from KSHV Reporting Station
Few Clouds Few Clouds  
Wind Chill: 58°   Ceiling: Unl
Heat Index: 58°   Visibility: 10mi
Dew Point: 33°   Wind: 20mph
Humidity: 39%   Direction: 240°WSW
Pressure: 30.13"   Gusts: 29mph
Location:  32.4407°N, 93.7892°W
Report Text: KSHV 261556Z 24017G25KT 10SM FEW270 14/01 A3013 RMK AO2 SLP202 T01440006
Loading
Personal Weather Stations






























Interactive Weather Map New forecast layout! Learn more

10-Day Weather Forecast

Advertisements
Track Severe Weather on mobile